Portada
METAR-TAF:

METAR-TAF

Aeroports :

Amman, Jordània

latitud: 31-59N, longitud: 035-59E, altitud: 767 m

Observació

L'informe es va fer fa 32 minuts, a les 06:00 UTC
Vent calma
Temperatura 3°C
Humitat 87%
Pressió 1022 hPa
Visibilitat: 2000 m
boirina

METAR: OJAM 200600Z 00000KT 2000 BR NSC 03/01 Q1022 NOSIG

Hora: 08:32 (06:32 UTC)

Pronòstic

L'informe es va fer fa 2 hores i 19 minuts, a les 04:13 UTC
Pronòstic vàlid del 20 a les 06 UTC al 21 a les 12 UTC
Vent 10 kt del Sud-Est
Visibilitat: 5000 m
calitja
Probabilitat 30% :
Temporalment
l' 20 a les 19 UTC al 21 a les 08 UTC
Visibilitat: 3000 m
Núvols disperses a una alçada de 5000 ft
Cel ennuvolat a una alçada de 8000 ft
xàfecs de pluja, boirina
Evolucionant progressivament
l' 21 a les 08 UTC al 21 a les 10 UTC
Vent 10 kt del Oest
Visibilitat: 6000 m
Núvols disperses a una alçada de 4000 ft

TAF: OJAM 200413Z 2006/2112 13010KT 5000 HZ NSC PROB30 TEMPO 2019/2108 3000 -SHRA BR SCT050 BKN080 BECMG 2108/2110 27010KT 6000 SCT040

Observacions i pronòstics meteorològics de més de 4000 aeroports (METAR i TAF).

Les estacions disponibles són els punts grocs i vermells al mapa.

Posi el ratolí al punt desitjat per veure el nom de l'estació.

Feu clic per veure les observacions i els pronòstics meteorològics.

Per canviar el mapa: feu clic els botons verds amb una creu de color negre per apropar; al botó verd amb un guió per allunyar la imatge; o en les fletxes verdes per a mapes adjacents.


METAR-TAF: